createdAt,value
2018-04-13T00:01:49.094Z,89.30
2018-04-13T00:04:16.566Z,89.20
2018-04-13T00:06:43.994Z,89.50
2018-04-13T00:09:11.509Z,89.80
2018-04-13T00:11:38.934Z,89.70
2018-04-13T00:14:07.122Z,89.40
2018-04-13T00:16:35.351Z,90.20
2018-04-13T00:19:02.828Z,89.70
2018-04-13T00:21:30.255Z,89.80
2018-04-13T00:23:57.674Z,89.90
2018-04-13T00:26:25.126Z,89.70
2018-04-13T00:28:53.450Z,89.50
2018-04-13T00:31:20.874Z,89.50
2018-04-13T00:33:48.360Z,89.70
2018-04-13T00:36:15.826Z,89.70
2018-04-13T00:38:43.298Z,89.70
2018-04-13T00:41:10.730Z,90.00
2018-04-13T00:43:38.950Z,90.10
2018-04-13T00:46:06.378Z,90.10
2018-04-13T00:48:33.895Z,90.00
2018-04-13T00:51:01.321Z,90.00
2018-04-13T00:53:29.551Z,90.20
2018-04-13T00:55:57.738Z,90.20
2018-04-13T00:58:25.206Z,90.20
2018-04-13T01:00:52.678Z,90.20
2018-04-13T01:03:20.146Z,90.10
2018-04-13T01:05:47.569Z,90.10
2018-04-13T01:08:15.006Z,90.10
2018-04-13T01:10:42.451Z,90.10
2018-04-13T01:13:09.923Z,90.20
2018-04-13T01:15:37.396Z,90.20
2018-04-13T01:18:04.863Z,90.20
2018-04-13T01:20:32.281Z,90.30
2018-04-13T01:22:59.712Z,90.30
2018-04-13T01:25:27.130Z,90.40
2018-04-13T01:27:55.318Z,90.40
2018-04-13T01:30:23.501Z,90.90
2018-04-13T01:32:51.019Z,90.50
2018-04-13T01:35:18.450Z,90.30
2018-04-13T01:37:45.870Z,90.60
2018-04-13T01:40:13.326Z,91.00
2018-04-13T01:42:40.794Z,90.60
2018-04-13T01:45:08.218Z,90.70
2018-04-13T01:47:35.848Z,90.70
2018-04-13T01:50:03.306Z,90.60
2018-04-13T01:52:30.737Z,90.60
2018-04-13T01:54:58.242Z,90.70
2018-04-13T01:57:25.666Z,91.10
2018-04-13T01:59:53.195Z,90.80
2018-04-13T02:02:20.614Z,90.80
2018-04-13T02:04:48.802Z,90.90
2018-04-13T02:07:16.234Z,90.80
2018-04-13T02:09:43.664Z,90.90
2018-04-13T02:12:11.850Z,90.80
2018-04-13T02:14:39.274Z,90.80
2018-04-13T02:17:06.706Z,91.00
2018-04-13T02:19:34.130Z,91.10
2018-04-13T02:22:01.563Z,91.00
2018-04-13T02:24:29.010Z,91.10
2018-04-13T02:26:56.443Z,91.20
2018-04-13T02:29:23.950Z,91.10
2018-04-13T02:31:51.379Z,91.10
2018-04-13T02:34:19.629Z,91.40
2018-04-13T02:36:47.036Z,91.10
2018-04-13T02:39:14.558Z,91.10
2018-04-13T02:41:42.015Z,91.10
2018-04-13T02:44:09.490Z,91.10
2018-04-13T02:46:36.918Z,91.10
2018-04-13T02:49:05.098Z,91.20
2018-04-13T02:51:34.044Z,91.20
2018-04-13T02:54:01.518Z,91.20
2018-04-13T02:56:28.950Z,91.20
2018-04-13T02:58:58.196Z,91.10
2018-04-13T03:01:25.763Z,91.30
2018-04-13T03:03:53.234Z,91.30
2018-04-13T03:06:20.662Z,91.40
2018-04-13T03:08:48.846Z,91.50
2018-04-13T03:11:16.377Z,91.50
2018-04-13T03:13:43.815Z,91.50
2018-04-13T03:16:12.007Z,91.50
2018-04-13T03:18:40.194Z,91.50
2018-04-13T03:21:08.499Z,91.50
2018-04-13T03:23:35.931Z,91.50
2018-04-13T03:26:04.151Z,91.40
2018-04-13T03:28:31.626Z,91.40
2018-04-13T03:30:59.295Z,91.40
2018-04-13T03:33:26.774Z,91.40
2018-04-13T03:35:54.210Z,91.50
2018-04-13T03:38:22.430Z,91.50
2018-04-13T03:40:49.895Z,91.50
2018-04-13T03:43:17.366Z,91.50
2018-04-13T03:45:44.835Z,91.50
2018-04-13T03:48:12.262Z,91.50
2018-04-13T03:50:39.778Z,91.40
2018-04-13T03:53:07.204Z,91.40
2018-04-13T03:55:35.399Z,91.40
2018-04-13T03:58:02.822Z,91.40
2018-04-13T04:00:30.267Z,91.40
2018-04-13T04:02:57.710Z,91.60
2018-04-13T04:05:25.926Z,91.80
2018-04-13T04:07:53.354Z,91.80
2018-04-13T04:10:20.778Z,91.90
2018-04-13T04:12:48.244Z,91.80
2018-04-13T04:15:15.703Z,91.90
2018-04-13T04:17:43.939Z,91.90
2018-04-13T04:20:24.666Z,92.00
2018-04-13T04:23:04.226Z,92.00
2018-04-13T04:25:52.494Z,92.10
2018-04-13T04:28:19.930Z,92.00
2018-04-13T04:30:48.120Z,92.00
2018-04-13T04:33:16.306Z,92.00
2018-04-13T04:35:44.519Z,92.00
2018-04-13T04:38:11.959Z,92.00
2018-04-13T04:40:40.146Z,92.00
2018-04-13T04:43:08.342Z,91.90
2018-04-13T04:45:36.542Z,92.00
2018-04-13T04:48:03.978Z,92.00
2018-04-13T04:50:32.154Z,92.00
2018-04-13T04:53:00.399Z,92.10
2018-04-13T04:55:27.822Z,92.00
2018-04-13T04:57:56.055Z,92.10
2018-04-13T05:00:23.519Z,92.10
2018-04-13T05:02:50.945Z,92.20
2018-04-13T05:05:18.367Z,92.30
2018-04-13T05:07:45.833Z,92.30
2018-04-13T05:10:13.251Z,92.40
2018-04-13T05:12:40.771Z,92.40
2018-04-13T05:15:08.197Z,92.40
2018-04-13T05:17:36.422Z,92.20
2018-04-13T05:20:03.846Z,92.20
2018-04-13T05:22:31.300Z,92.10
2018-04-13T05:24:58.732Z,92.00
2018-04-13T05:27:26.150Z,92.00
2018-04-13T05:29:54.486Z,91.40
2018-04-13T05:32:21.906Z,91.40
2018-04-13T05:34:49.431Z,90.20
2018-04-13T05:37:16.899Z,88.20
2018-04-13T05:39:44.323Z,86.50
2018-04-13T05:42:11.838Z,85.10
2018-04-13T05:44:39.259Z,85.00
2018-04-13T05:47:06.775Z,85.40
2018-04-13T05:49:34.198Z,86.40
2018-04-13T05:52:01.715Z,87.50
2018-04-13T05:54:29.146Z,88.60
2018-04-13T05:56:56.572Z,87.60
2018-04-13T05:59:24.003Z,88.30
2018-04-13T06:01:52.210Z,88.30
2018-04-13T06:04:19.641Z,88.30
2018-04-13T06:06:47.071Z,87.90
2018-04-13T06:09:14.507Z,88.90
2018-04-13T06:11:41.995Z,87.00
2018-04-13T06:14:09.459Z,85.90
2018-04-13T06:16:36.931Z,85.30
2018-04-13T06:19:04.362Z,85.10
2018-04-13T06:21:32.554Z,85.20
2018-04-13T06:24:00.774Z,84.30
2018-04-13T06:26:28.245Z,84.30
2018-04-13T06:28:55.715Z,85.60
2018-04-13T06:31:23.138Z,84.40
2018-04-13T06:33:50.651Z,84.80
2018-04-13T06:36:18.079Z,83.70
2018-04-13T06:38:47.062Z,83.00
2018-04-13T06:41:14.490Z,82.80
2018-04-13T06:43:42.040Z,82.60
2018-04-13T06:46:09.410Z,83.50
2018-04-13T06:48:37.612Z,82.50
2018-04-13T06:51:05.039Z,82.40
2018-04-13T06:53:32.562Z,81.80
2018-04-13T06:56:00.032Z,81.70
2018-04-13T06:58:27.462Z,81.90
2018-04-13T07:00:55.658Z,83.40
2018-04-13T07:03:23.879Z,83.20
2018-04-13T07:05:51.342Z,83.30
2018-04-13T07:08:18.806Z,83.30
2018-04-13T07:10:47.001Z,83.60
2018-04-13T07:13:14.470Z,84.10
2018-04-13T07:15:41.894Z,84.20
2018-04-13T07:18:09.414Z,84.50
2018-04-13T07:20:36.884Z,85.00
2018-04-13T07:23:04.318Z,86.40
2018-04-13T07:25:32.555Z,87.40
2018-04-13T07:27:59.973Z,87.40
2018-04-13T07:30:28.203Z,87.70
2018-04-13T07:32:55.636Z,87.80
2018-04-13T07:35:23.827Z,88.00
2018-04-13T07:37:52.036Z,88.70
2018-04-13T07:40:19.556Z,88.70
2018-04-13T07:42:47.654Z,88.90
2018-04-13T07:45:15.078Z,89.00
2018-04-13T07:47:42.510Z,90.00
2018-04-13T07:50:10.710Z,90.20
2018-04-13T07:52:38.190Z,90.20
2018-04-13T07:55:05.671Z,90.30
2018-04-13T07:57:33.093Z,90.40
2018-04-13T08:00:00.570Z,90.50
2018-04-13T08:02:27.954Z,90.70
2018-04-13T08:04:55.443Z,90.80
2018-04-13T08:07:23.179Z,91.10
2018-04-13T08:09:50.374Z,91.20
2018-04-13T08:12:17.844Z,91.30
2018-04-13T08:14:45.322Z,91.50
2018-04-13T08:17:12.785Z,91.40
2018-04-13T08:19:40.251Z,92.00
2018-04-13T08:22:07.679Z,92.20
2018-04-13T08:24:35.911Z,92.60
2018-04-13T08:27:03.384Z,92.60
2018-04-13T08:29:30.814Z,92.60
2018-04-13T08:31:59.015Z,92.80
2018-04-13T08:34:27.210Z,93.20
2018-04-13T08:36:54.694Z,93.20
2018-04-13T08:39:22.127Z,93.30
2018-04-13T08:41:50.355Z,93.30
2018-04-13T08:44:17.791Z,93.30
2018-04-13T08:46:45.978Z,94.40
2018-04-13T08:49:14.340Z,94.80
2018-04-13T08:51:42.386Z,95.20
2018-04-13T08:54:09.840Z,95.10
2018-04-13T08:56:37.325Z,95.40
2018-04-13T08:59:04.794Z,95.60
2018-04-13T09:01:32.215Z,95.70
2018-04-13T09:04:00.450Z,95.70
2018-04-13T09:06:27.949Z,95.70
2018-04-13T09:08:56.082Z,95.70
2018-04-13T09:11:24.395Z,95.80
2018-04-13T09:13:51.832Z,95.80
2018-04-13T09:16:20.022Z,95.80
2018-04-13T09:18:49.262Z,96.00
2018-04-13T09:21:16.730Z,96.00
2018-04-13T09:23:44.258Z,96.30
2018-04-13T09:26:12.462Z,96.20
2018-04-13T09:28:40.679Z,96.20
2018-04-13T09:31:08.114Z,96.20
2018-04-13T09:33:36.338Z,96.20
2018-04-13T09:36:03.806Z,96.20
2018-04-13T09:38:31.233Z,96.20
2018-04-13T09:41:00.179Z,96.60
2018-04-13T09:43:27.650Z,96.50
2018-04-13T09:45:55.121Z,96.70
2018-04-13T09:48:22.547Z,96.90
2018-04-13T09:50:50.751Z,97.20
2018-04-13T09:53:18.959Z,97.00
2018-04-13T09:55:46.432Z,97.00
2018-04-13T09:58:13.863Z,97.10
2018-04-13T10:00:41.288Z,97.20
2018-04-13T10:03:14.542Z,97.10
2018-04-13T10:05:42.742Z,96.90
2018-04-13T10:08:10.951Z,96.70
2018-04-13T10:10:38.389Z,96.60
2018-04-13T10:13:06.583Z,96.20
2018-04-13T10:15:34.779Z,95.50
2018-04-13T10:18:02.259Z,95.50
2018-04-13T10:20:29.731Z,95.60
2018-04-13T10:22:58.019Z,94.00
2018-04-13T10:25:25.453Z,94.00
2018-04-13T10:27:53.675Z,95.30
2018-04-13T10:30:21.151Z,95.20
2018-04-13T10:32:48.586Z,95.20
2018-04-13T10:35:16.782Z,95.20
2018-04-13T10:37:44.978Z,95.30
2018-04-13T10:40:12.406Z,95.20
2018-04-13T10:42:39.842Z,95.30
2018-04-13T10:45:07.266Z,95.50
2018-04-13T10:47:35.486Z,95.50
2018-04-13T10:50:02.907Z,95.40
2018-04-13T10:52:30.333Z,96.00
2018-04-13T10:54:57.797Z,95.80
2018-04-13T10:57:25.222Z,95.90
2018-04-13T10:59:53.422Z,96.20
2018-04-13T11:02:21.615Z,95.80
2018-04-13T11:04:49.819Z,95.50
2018-04-13T11:07:17.250Z,95.50
2018-04-13T11:09:45.443Z,95.50
2018-04-13T11:12:12.870Z,95.50
2018-04-13T11:14:40.323Z,95.50
2018-04-13T11:17:07.790Z,95.70
2018-04-13T11:19:35.259Z,96.20
2018-04-13T11:22:02.690Z,96.10
2018-04-13T11:24:31.015Z,96.60
2018-04-13T11:26:58.491Z,96.30
2018-04-13T11:29:25.954Z,96.40
2018-04-13T11:31:53.379Z,96.70
2018-04-13T11:34:20.811Z,96.70
2018-04-13T11:36:48.234Z,96.60
2018-04-13T11:39:16.434Z,96.90
2018-04-13T11:41:43.858Z,96.90
2018-04-13T11:44:11.386Z,96.90
2018-04-13T11:46:38.856Z,96.60
2018-04-13T11:49:06.330Z,96.30
2018-04-13T11:51:33.756Z,96.30
2018-04-13T11:54:02.701Z,96.70
2018-04-13T11:56:30.124Z,96.60
2018-04-13T11:58:58.506Z,96.60
2018-04-13T12:01:25.934Z,96.50
2018-04-13T12:03:53.397Z,96.80
2018-04-13T12:06:22.622Z,96.80
2018-04-13T12:08:51.055Z,96.80
2018-04-13T12:11:18.574Z,96.40
2018-04-13T12:13:46.006Z,95.80
2018-04-13T12:16:14.200Z,96.00
2018-04-13T12:18:42.399Z,96.20
2018-04-13T12:21:10.590Z,96.30
2018-04-13T12:23:38.074Z,96.30
2018-04-13T12:26:05.507Z,96.40
2018-04-13T12:28:33.014Z,96.40
2018-04-13T12:31:00.486Z,96.40
2018-04-13T12:33:28.094Z,96.20
2018-04-13T12:35:55.542Z,95.70
2018-04-13T12:38:23.031Z,95.60
2018-04-13T12:40:52.466Z,94.70
2018-04-13T12:43:19.906Z,95.10
2018-04-13T12:45:47.366Z,95.70
2018-04-13T12:48:14.790Z,95.80
2018-04-13T12:50:42.990Z,94.90
2018-04-13T12:53:11.230Z,94.60
2018-04-13T12:55:39.386Z,94.40
2018-04-13T12:58:06.867Z,94.40
2018-04-13T13:00:34.299Z,94.00
2018-04-13T13:03:02.490Z,95.00
2018-04-13T13:05:29.998Z,95.00
2018-04-13T13:07:57.428Z,95.10
2018-04-13T13:10:25.621Z,95.50
2018-04-13T13:12:53.043Z,95.40
2018-04-13T13:15:20.470Z,96.00
2018-04-13T13:17:47.892Z,94.70
2018-04-13T13:20:15.323Z,95.40
2018-04-13T13:22:42.779Z,95.10
2018-04-13T13:25:10.358Z,95.20
2018-04-13T13:27:37.778Z,93.50
2018-04-13T13:30:05.971Z,94.80
2018-04-13T13:32:34.198Z,95.20
2018-04-13T13:35:01.625Z,95.50
2018-04-13T13:37:29.152Z,95.50
2018-04-13T13:39:56.918Z,95.50
2018-04-13T13:42:24.385Z,95.10
2018-04-13T13:44:51.806Z,95.20
2018-04-13T13:47:19.235Z,95.10
2018-04-13T13:49:46.706Z,95.10
2018-04-13T13:52:14.126Z,95.10
2018-04-13T13:54:42.346Z,95.50
2018-04-13T13:57:09.819Z,95.50
2018-04-13T13:59:37.238Z,95.70
2018-04-13T14:02:04.762Z,95.60
2018-04-13T14:04:32.186Z,95.70
2018-04-13T14:06:59.606Z,95.60
2018-04-13T14:09:27.070Z,95.70
2018-04-13T14:11:55.215Z,95.90
2018-04-13T14:14:23.410Z,96.00
2018-04-13T14:16:51.599Z,95.80
2018-04-13T14:19:19.810Z,95.80
2018-04-13T14:21:47.234Z,95.70
2018-04-13T14:24:15.418Z,95.40
2018-04-13T14:26:42.846Z,95.40
2018-04-13T14:29:10.266Z,95.20
2018-04-13T14:31:37.774Z,95.50
2018-04-13T14:34:05.200Z,95.80
2018-04-13T14:36:33.431Z,95.70
2018-04-13T14:39:00.902Z,95.70
2018-04-13T14:41:28.327Z,95.70
2018-04-13T14:43:55.839Z,95.80
2018-04-13T14:46:23.266Z,95.90
2018-04-13T14:48:51.630Z,95.70
2018-04-13T14:51:19.067Z,96.00
2018-04-13T14:53:46.546Z,96.10
2018-04-13T14:56:13.973Z,96.00
2018-04-13T14:58:42.155Z,96.10
2018-04-13T15:01:09.588Z,96.00
2018-04-13T15:03:37.042Z,96.10
2018-04-13T15:06:04.511Z,96.00
2018-04-13T15:08:31.934Z,96.10
2018-04-13T15:10:59.445Z,96.20
2018-04-13T15:13:26.875Z,96.20
2018-04-13T15:15:55.057Z,96.30
2018-04-13T15:18:22.482Z,96.20
2018-04-13T15:20:49.901Z,96.30
2018-04-13T15:23:18.123Z,96.20
2018-04-13T15:25:45.538Z,96.20
2018-04-13T15:28:13.066Z,96.60
2018-04-13T15:30:40.490Z,96.40
2018-04-13T15:33:07.910Z,96.50
2018-04-13T15:35:35.374Z,96.30
2018-04-13T15:38:02.842Z,96.50
2018-04-13T15:40:30.315Z,96.80
2018-04-13T15:42:57.783Z,96.90
2018-04-13T15:45:25.206Z,97.00
2018-04-13T15:47:52.634Z,97.00
2018-04-13T15:50:20.097Z,96.90
2018-04-13T15:52:47.562Z,96.90
2018-04-13T15:55:14.989Z,97.00
2018-04-13T15:57:42.507Z,96.90
2018-04-13T16:00:09.966Z,97.00
2018-04-13T16:02:37.397Z,97.10
2018-04-13T16:05:04.907Z,97.30
2018-04-13T16:07:32.334Z,97.00
2018-04-13T16:09:59.851Z,97.00
2018-04-13T16:12:27.278Z,97.00
2018-04-13T16:14:55.470Z,97.30
2018-04-13T16:17:23.669Z,97.20
2018-04-13T16:19:51.854Z,97.10
2018-04-13T16:22:20.047Z,97.30
2018-04-13T16:24:48.238Z,97.30
2018-04-13T16:27:15.664Z,97.30
2018-04-13T16:29:43.094Z,97.10
2018-04-13T16:32:10.514Z,97.30
2018-04-13T16:34:37.946Z,97.30
2018-04-13T16:37:05.398Z,97.20
2018-04-13T16:39:33.589Z,97.30
2018-04-13T16:42:01.062Z,97.30
2018-04-13T16:44:28.491Z,97.40
2018-04-13T16:46:56.682Z,97.40
2018-04-13T16:49:24.917Z,97.50
2018-04-13T16:51:52.377Z,97.50
2018-04-13T16:54:19.843Z,97.70
2018-04-13T16:56:47.268Z,97.70
2018-04-13T16:59:14.779Z,97.60
2018-04-13T17:01:42.251Z,97.60
2018-04-13T17:04:09.674Z,97.20
2018-04-13T17:06:38.618Z,97.50
2018-04-13T17:09:06.038Z,97.50
2018-04-13T17:11:33.470Z,97.60
2018-04-13T17:14:00.939Z,97.60
2018-04-13T17:16:28.374Z,97.50
2018-04-13T17:18:56.558Z,97.60
2018-04-13T17:21:24.759Z,97.70
2018-04-13T17:23:52.182Z,97.70
2018-04-13T17:26:19.760Z,97.50
2018-04-13T17:28:47.282Z,97.80
2018-04-13T17:31:14.710Z,97.70
2018-04-13T17:33:42.136Z,97.70
2018-04-13T17:36:09.590Z,97.70
2018-04-13T17:38:37.018Z,97.70
2018-04-13T17:41:04.527Z,97.40
2018-04-13T17:43:31.997Z,97.70
2018-04-13T17:45:59.426Z,97.40
2018-04-13T17:48:26.940Z,97.50
2018-04-13T17:50:54.386Z,97.40
2018-04-13T17:53:22.606Z,97.80
2018-04-13T17:55:50.041Z,97.50
2018-04-13T17:58:18.234Z,97.50
2018-04-13T18:00:45.718Z,97.50
2018-04-13T18:03:13.195Z,97.50
2018-04-13T18:05:40.669Z,97.40
2018-04-13T18:08:08.090Z,97.40
2018-04-13T18:10:36.293Z,97.50
2018-04-13T18:13:04.524Z,97.40
2018-04-13T18:15:32.698Z,97.40
2018-04-13T18:18:00.118Z,97.40
2018-04-13T18:20:27.550Z,97.30
2018-04-13T18:22:55.014Z,97.80
2018-04-13T18:25:22.427Z,97.50
2018-04-13T18:27:50.657Z,97.90
2018-04-13T18:30:18.077Z,97.60
2018-04-13T18:32:45.598Z,97.60
2018-04-13T18:35:13.018Z,97.60
2018-04-13T18:37:40.539Z,97.60
2018-04-13T18:40:07.967Z,97.70
2018-04-13T18:42:36.174Z,97.90
2018-04-13T18:45:04.383Z,97.60
2018-04-13T18:47:31.818Z,97.60
2018-04-13T18:50:00.051Z,97.60
2018-04-13T18:52:27.503Z,97.50
2018-04-13T18:54:54.953Z,97.60
2018-04-13T18:57:23.166Z,97.70
2018-04-13T18:59:50.586Z,97.70
2018-04-13T19:02:18.102Z,97.70
2018-04-13T19:04:45.574Z,97.70
2018-04-13T19:07:13.051Z,97.80
2018-04-13T19:09:40.478Z,97.70
2018-04-13T19:12:08.678Z,97.80
2018-04-13T19:14:36.866Z,97.80
2018-04-13T19:17:05.066Z,97.80
2018-04-13T19:19:32.552Z,97.80
2018-04-13T19:21:59.974Z,97.80
2018-04-13T19:24:28.202Z,97.70
2018-04-13T19:26:55.634Z,97.70
2018-04-13T19:29:23.859Z,97.80
2018-04-13T19:31:51.286Z,97.80
2018-04-13T19:34:19.481Z,98.00
2018-04-13T19:36:47.701Z,97.70
2018-04-13T19:39:15.122Z,97.70
2018-04-13T19:41:42.550Z,97.70
2018-04-13T19:44:10.010Z,97.70
2018-04-13T19:46:37.438Z,97.70
2018-04-13T19:49:05.667Z,97.50
2018-04-13T19:51:33.135Z,97.80
2018-04-13T19:54:00.559Z,97.80
2018-04-13T19:56:28.114Z,97.80
2018-04-13T19:58:55.547Z,97.70
2018-04-13T20:01:22.979Z,97.70
2018-04-13T20:03:51.204Z,97.70
2018-04-13T20:06:18.637Z,97.60
2018-04-13T20:08:47.266Z,97.70
2018-04-13T20:11:14.738Z,97.70
2018-04-13T20:13:42.162Z,97.70
2018-04-13T20:16:09.678Z,97.70
2018-04-13T20:18:37.098Z,97.70
2018-04-13T20:21:05.298Z,97.80
2018-04-13T20:23:34.242Z,97.80
2018-04-13T20:26:01.710Z,97.80
2018-04-13T20:28:29.142Z,97.80
2018-04-13T20:30:57.359Z,97.80
2018-04-13T20:33:24.790Z,97.70
2018-04-13T20:35:53.022Z,97.80
2018-04-13T20:38:20.455Z,97.80
2018-04-13T20:40:48.691Z,97.60
2018-04-13T20:43:16.136Z,97.60
2018-04-13T20:45:44.311Z,97.70
2018-04-13T20:48:12.526Z,97.70
2018-04-13T20:50:39.943Z,97.70
2018-04-13T20:53:07.458Z,97.70
2018-04-13T20:55:34.934Z,97.70
2018-04-13T20:58:02.403Z,97.70
2018-04-13T21:00:29.826Z,97.70
2018-04-13T21:02:57.327Z,97.70
2018-04-13T21:05:24.750Z,97.70
2018-04-13T21:07:52.282Z,97.70
2018-04-13T21:10:19.706Z,97.80
2018-04-13T21:12:47.218Z,97.70
2018-04-13T21:15:14.646Z,97.80
2018-04-13T21:17:42.878Z,97.70
2018-04-13T21:20:10.303Z,97.80
2018-04-13T21:22:37.822Z,97.90
2018-04-13T21:25:05.249Z,97.90
2018-04-13T21:27:32.671Z,97.90
2018-04-13T21:30:00.107Z,98.00
2018-04-13T21:32:28.435Z,97.90
2018-04-13T21:34:55.882Z,97.90
2018-04-13T21:37:23.352Z,98.00
2018-04-13T21:39:50.832Z,97.90
2018-04-13T21:42:18.254Z,97.80
2018-04-13T21:44:46.482Z,97.90
2018-04-13T21:47:13.957Z,98.00
2018-04-13T21:49:41.422Z,97.90
2018-04-13T21:52:08.852Z,97.80
2018-04-13T21:54:37.082Z,97.80
2018-04-13T21:57:04.506Z,97.80
2018-04-13T21:59:31.933Z,97.80
2018-04-13T22:01:59.362Z,98.20
2018-04-13T22:04:27.575Z,97.70
2018-04-13T22:06:54.999Z,97.70
2018-04-13T22:09:23.194Z,97.70
2018-04-13T22:11:51.414Z,97.90
2018-04-13T22:14:30.791Z,97.60
2018-04-13T22:16:58.338Z,97.60
2018-04-13T22:19:25.770Z,97.70
2018-04-13T22:21:53.967Z,97.60
2018-04-13T22:24:22.158Z,97.60
2018-04-13T22:26:50.366Z,97.60
2018-04-13T22:29:17.793Z,97.80
2018-04-13T22:31:45.231Z,97.50
2018-04-13T22:34:12.654Z,97.40
2018-04-13T22:36:40.858Z,97.30
2018-04-13T22:39:08.286Z,97.30
2018-04-13T22:41:37.233Z,97.20
2018-04-13T22:44:04.654Z,97.20
2018-04-13T22:46:32.090Z,97.10
2018-04-13T22:48:59.514Z,97.10
2018-04-13T22:51:27.715Z,97.10
2018-04-13T22:53:55.138Z,97.10
2018-04-13T22:56:22.571Z,97.10
2018-04-13T22:58:51.064Z,97.10
2018-04-13T23:01:18.490Z,97.10
2018-04-13T23:03:46.003Z,97.10
2018-04-13T23:06:13.435Z,97.20
2018-04-13T23:08:41.658Z,97.10
2018-04-13T23:11:09.229Z,97.10
2018-04-13T23:13:36.639Z,97.10
2018-04-13T23:16:04.170Z,97.10
2018-04-13T23:18:31.648Z,97.10
2018-04-13T23:20:59.214Z,97.10
2018-04-13T23:23:26.638Z,97.10
2018-04-13T23:25:54.838Z,96.70
2018-04-13T23:28:23.054Z,97.10
2018-04-13T23:30:50.523Z,97.10
2018-04-13T23:33:17.995Z,97.20
2018-04-13T23:35:45.424Z,97.10
2018-04-13T23:38:12.847Z,97.00
2018-04-13T23:40:40.278Z,97.00
2018-04-13T23:43:08.471Z,96.80
2018-04-13T23:45:35.918Z,96.80
2018-04-13T23:48:04.114Z,96.40
2018-04-13T23:50:32.306Z,96.60
2018-04-13T23:53:00.518Z,96.60
2018-04-13T23:55:28.019Z,96.50
2018-04-13T23:57:55.451Z,96.50
